sensor_id;sensor_type;location;lat;lon;timestamp;P1;durP1;ratioP1;P2;durP2;ratioP2
5955;SDS011;3004;48.080;11.600;2023-08-30T09:06:38;90.10;;;8.43;;
5955;SDS011;3004;48.080;11.600;2023-08-30T09:09:16;90.30;;;8.40;;
5955;SDS011;3004;48.080;11.600;2023-08-30T09:11:47;89.70;;;8.27;;
5955;SDS011;3004;48.080;11.600;2023-08-30T09:14:20;89.47;;;8.10;;
5955;SDS011;3004;48.080;11.600;2023-08-30T09:17:00;89.27;;;8.00;;
5955;SDS011;3004;48.080;11.600;2023-08-30T09:19:28;89.40;;;7.97;;
5955;SDS011;3004;48.080;11.600;2023-08-30T09:22:07;89.90;;;8.17;;
5955;SDS011;3004;48.080;11.600;2023-08-30T09:24:40;90.17;;;8.60;;
5955;SDS011;3004;48.080;11.600;2023-08-30T09:27:07;89.93;;;8.07;;
5955;SDS011;3004;48.080;11.600;2023-08-30T09:29:37;89.67;;;8.07;;
5955;SDS011;3004;48.080;11.600;2023-08-30T09:32:09;90.13;;;8.13;;
5955;SDS011;3004;48.080;11.600;2023-08-30T09:34:47;90.27;;;8.17;;
5955;SDS011;3004;48.080;11.600;2023-08-30T09:37:23;89.83;;;8.17;;
5955;SDS011;3004;48.080;11.600;2023-08-30T09:40:06;90.07;;;8.03;;
5955;SDS011;3004;48.080;11.600;2023-08-30T09:42:46;90.37;;;8.13;;
5955;SDS011;3004;48.080;11.600;2023-08-30T09:45:37;89.47;;;8.00;;
5955;SDS011;3004;48.080;11.600;2023-08-30T09:48:13;88.57;;;7.80;;
5955;SDS011;3004;48.080;11.600;2023-08-30T09:51:25;88.37;;;7.53;;
5955;SDS011;3004;48.080;11.600;2023-08-30T10:14:58;83.87;;;6.17;;
5955;SDS011;3004;48.080;11.600;2023-08-30T10:31:33;86.97;;;7.30;;
5955;SDS011;3004;48.080;11.600;2023-08-30T10:37:53;86.27;;;6.67;;
5955;SDS011;3004;48.080;11.600;2023-08-30T10:40:24;86.73;;;7.27;;
5955;SDS011;3004;48.080;11.600;2023-08-30T10:42:59;85.50;;;6.37;;
5955;SDS011;3004;48.080;11.600;2023-08-30T10:45:26;85.87;;;6.40;;
5955;SDS011;3004;48.080;11.600;2023-08-30T10:48:17;85.30;;;6.70;;
5955;SDS011;3004;48.080;11.600;2023-08-30T10:50:52;83.67;;;6.13;;
5955;SDS011;3004;48.080;11.600;2023-08-30T10:53:34;83.67;;;5.80;;
5955;SDS011;3004;48.080;11.600;2023-08-30T10:56:05;83.40;;;5.80;;
5955;SDS011;3004;48.080;11.600;2023-08-30T10:58:40;83.20;;;5.60;;
5955;SDS011;3004;48.080;11.600;2023-08-30T11:01:09;82.53;;;5.33;;
5955;SDS011;3004;48.080;11.600;2023-08-30T11:03:40;82.27;;;5.50;;
5955;SDS011;3004;48.080;11.600;2023-08-30T11:06:12;82.30;;;5.53;;
5955;SDS011;3004;48.080;11.600;2023-08-30T11:08:42;83.30;;;5.70;;
5955;SDS011;3004;48.080;11.600;2023-08-30T11:11:10;82.80;;;5.40;;
5955;SDS011;3004;48.080;11.600;2023-08-30T11:13:39;82.70;;;5.33;;
5955;SDS011;3004;48.080;11.600;2023-08-30T11:16:06;83.50;;;5.77;;
5955;SDS011;3004;48.080;11.600;2023-08-30T11:18:36;82.47;;;5.27;;
5955;SDS011;3004;48.080;11.600;2023-08-30T11:21:09;82.17;;;5.10;;
5955;SDS011;3004;48.080;11.600;2023-08-30T11:23:38;80.37;;;4.70;;
5955;SDS011;3004;48.080;11.600;2023-08-30T11:26:07;80.90;;;5.00;;
5955;SDS011;3004;48.080;11.600;2023-08-30T11:28:34;80.07;;;4.43;;
5955;SDS011;3004;48.080;11.600;2023-08-30T11:31:06;79.40;;;4.40;;
5955;SDS011;3004;48.080;11.600;2023-08-30T11:33:33;77.80;;;3.80;;
5955;SDS011;3004;48.080;11.600;2023-08-30T11:36:00;77.60;;;3.80;;
5955;SDS011;3004;48.080;11.600;2023-08-30T11:38:28;78.00;;;3.70;;
5955;SDS011;3004;48.080;11.600;2023-08-30T11:40:56;79.30;;;4.00;;
5955;SDS011;3004;48.080;11.600;2023-08-30T11:43:24;78.80;;;4.10;;
5955;SDS011;3004;48.080;11.600;2023-08-30T11:45:55;78.60;;;4.10;;
5955;SDS011;3004;48.080;11.600;2023-08-30T11:48:22;79.07;;;4.00;;
5955;SDS011;3004;48.080;11.600;2023-08-30T11:50:50;78.60;;;4.13;;
5955;SDS011;3004;48.080;11.600;2023-08-30T11:53:17;78.30;;;3.83;;
5955;SDS011;3004;48.080;11.600;2023-08-30T11:55:45;77.37;;;3.60;;
5955;SDS011;3004;48.080;11.600;2023-08-30T11:58:13;77.10;;;3.60;;
5955;SDS011;3004;48.080;11.600;2023-08-30T12:00:39;77.57;;;3.67;;
5955;SDS011;3004;48.080;11.600;2023-08-30T12:03:07;77.53;;;3.60;;
5955;SDS011;3004;48.080;11.600;2023-08-30T12:05:34;77.93;;;3.60;;
5955;SDS011;3004;48.080;11.600;2023-08-30T12:08:01;79.60;;;4.63;;
5955;SDS011;3004;48.080;11.600;2023-08-30T12:10:29;77.17;;;3.50;;
5955;SDS011;3004;48.080;11.600;2023-08-30T12:12:58;77.37;;;3.57;;
5955;SDS011;3004;48.080;11.600;2023-08-30T12:15:25;77.50;;;3.63;;
5955;SDS011;3004;48.080;11.600;2023-08-30T12:17:53;77.67;;;3.53;;
5955;SDS011;3004;48.080;11.600;2023-08-30T12:20:21;77.67;;;3.70;;
5955;SDS011;3004;48.080;11.600;2023-08-30T12:22:48;77.60;;;3.80;;
5955;SDS011;3004;48.080;11.600;2023-08-30T12:25:16;77.80;;;3.70;;
5955;SDS011;3004;48.080;11.600;2023-08-30T12:27:48;77.43;;;3.50;;
5955;SDS011;3004;48.080;11.600;2023-08-30T12:30:17;77.47;;;3.83;;
5955;SDS011;3004;48.080;11.600;2023-08-30T12:32:44;77.40;;;3.70;;
5955;SDS011;3004;48.080;11.600;2023-08-30T12:35:11;78.50;;;3.80;;
5955;SDS011;3004;48.080;11.600;2023-08-30T12:37:38;77.90;;;3.90;;
5955;SDS011;3004;48.080;11.600;2023-08-30T12:40:05;79.83;;;5.67;;
5955;SDS011;3004;48.080;11.600;2023-08-30T12:42:33;78.00;;;3.67;;
5955;SDS011;3004;48.080;11.600;2023-08-30T12:45:00;78.00;;;3.60;;
5955;SDS011;3004;48.080;11.600;2023-08-30T12:47:30;78.70;;;3.70;;
5955;SDS011;3004;48.080;11.600;2023-08-30T12:49:57;78.90;;;3.90;;
5955;SDS011;3004;48.080;11.600;2023-08-30T12:52:24;78.10;;;3.70;;
5955;SDS011;3004;48.080;11.600;2023-08-30T12:54:51;78.40;;;3.63;;
5955;SDS011;3004;48.080;11.600;2023-08-30T12:57:19;78.40;;;3.70;;
5955;SDS011;3004;48.080;11.600;2023-08-30T12:59:46;78.20;;;3.60;;
5955;SDS011;3004;48.080;11.600;2023-08-30T13:02:13;78.30;;;3.70;;
5955;SDS011;3004;48.080;11.600;2023-08-30T13:04:41;78.27;;;3.70;;
5955;SDS011;3004;48.080;11.600;2023-08-30T13:07:08;77.60;;;3.47;;
5955;SDS011;3004;48.080;11.600;2023-08-30T13:09:35;78.80;;;3.80;;
5955;SDS011;3004;48.080;11.600;2023-08-30T13:12:02;79.20;;;3.90;;
5955;SDS011;3004;48.080;11.600;2023-08-30T13:14:30;78.57;;;3.77;;
5955;SDS011;3004;48.080;11.600;2023-08-30T13:16:57;78.57;;;3.70;;
5955;SDS011;3004;48.080;11.600;2023-08-30T13:19:24;79.00;;;3.80;;
5955;SDS011;3004;48.080;11.600;2023-08-30T13:21:52;77.17;;;3.60;;
5955;SDS011;3004;48.080;11.600;2023-08-30T13:24:20;77.00;;;3.50;;
5955;SDS011;3004;48.080;11.600;2023-08-30T13:26:46;77.20;;;3.60;;
5955;SDS011;3004;48.080;11.600;2023-08-30T13:29:13;78.23;;;3.60;;
5955;SDS011;3004;48.080;11.600;2023-08-30T13:31:41;76.60;;;3.23;;
5955;SDS011;3004;48.080;11.600;2023-08-30T13:34:08;77.50;;;3.70;;
5955;SDS011;3004;48.080;11.600;2023-08-30T13:36:35;76.77;;;3.90;;
5955;SDS011;3004;48.080;11.600;2023-08-30T13:39:05;76.80;;;3.40;;
5955;SDS011;3004;48.080;11.600;2023-08-30T13:41:33;77.40;;;3.80;;
5955;SDS011;3004;48.080;11.600;2023-08-30T13:44:00;77.40;;;3.50;;
5955;SDS011;3004;48.080;11.600;2023-08-30T13:46:28;76.87;;;3.50;;
5955;SDS011;3004;48.080;11.600;2023-08-30T13:48:55;77.87;;;3.70;;
5955;SDS011;3004;48.080;11.600;2023-08-30T13:51:22;77.67;;;3.50;;
5955;SDS011;3004;48.080;11.600;2023-08-30T13:53:50;78.77;;;3.90;;
5955;SDS011;3004;48.080;11.600;2023-08-30T13:56:19;79.10;;;3.87;;
5955;SDS011;3004;48.080;11.600;2023-08-30T13:58:46;78.70;;;3.70;;
5955;SDS011;3004;48.080;11.600;2023-08-30T14:01:13;78.80;;;3.73;;
5955;SDS011;3004;48.080;11.600;2023-08-30T14:03:40;78.77;;;3.90;;
5955;SDS011;3004;48.080;11.600;2023-08-30T14:06:10;79.30;;;3.80;;
5955;SDS011;3004;48.080;11.600;2023-08-30T14:08:37;83.30;;;4.93;;
5955;SDS011;3004;48.080;11.600;2023-08-30T14:11:06;78.87;;;3.80;;
5955;SDS011;3004;48.080;11.600;2023-08-30T14:13:35;79.17;;;4.00;;
5955;SDS011;3004;48.080;11.600;2023-08-30T14:16:04;79.93;;;4.00;;
5955;SDS011;3004;48.080;11.600;2023-08-30T14:18:32;80.20;;;4.10;;
5955;SDS011;3004;48.080;11.600;2023-08-30T14:20:59;80.57;;;4.20;;
5955;SDS011;3004;48.080;11.600;2023-08-30T14:23:29;81.70;;;4.80;;
5955;SDS011;3004;48.080;11.600;2023-08-30T14:25:58;82.60;;;4.90;;
5955;SDS011;3004;48.080;11.600;2023-08-30T14:28:31;82.77;;;4.90;;
5955;SDS011;3004;48.080;11.600;2023-08-30T14:31:19;82.97;;;5.00;;
5955;SDS011;3004;48.080;11.600;2023-08-30T14:33:56;83.27;;;5.00;;
5955;SDS011;3004;48.080;11.600;2023-08-30T14:36:37;82.87;;;5.10;;
5955;SDS011;3004;48.080;11.600;2023-08-30T14:39:13;83.17;;;5.10;;
5955;SDS011;3004;48.080;11.600;2023-08-30T14:41:56;83.67;;;5.40;;
5955;SDS011;3004;48.080;11.600;2023-08-30T14:44:48;84.70;;;5.60;;
5955;SDS011;3004;48.080;11.600;2023-08-30T14:50:03;85.37;;;5.60;;
5955;SDS011;3004;48.080;11.600;2023-08-30T14:52:33;85.67;;;5.80;;
5955;SDS011;3004;48.080;11.600;2023-08-30T14:55:01;85.23;;;5.80;;
5955;SDS011;3004;48.080;11.600;2023-08-30T14:57:28;84.87;;;5.60;;
5955;SDS011;3004;48.080;11.600;2023-08-30T14:59:55;84.90;;;5.80;;
5955;SDS011;3004;48.080;11.600;2023-08-30T15:02:23;85.30;;;5.73;;
5955;SDS011;3004;48.080;11.600;2023-08-30T15:04:55;85.60;;;5.70;;
5955;SDS011;3004;48.080;11.600;2023-08-30T15:07:22;86.00;;;5.90;;
5955;SDS011;3004;48.080;11.600;2023-08-30T15:09:49;85.60;;;5.83;;
5955;SDS011;3004;48.080;11.600;2023-08-30T15:12:16;85.67;;;5.90;;
5955;SDS011;3004;48.080;11.600;2023-08-30T15:14:44;85.93;;;6.07;;
5955;SDS011;3004;48.080;11.600;2023-08-30T15:17:13;85.77;;;5.93;;
5955;SDS011;3004;48.080;11.600;2023-08-30T15:19:42;86.43;;;6.03;;
5955;SDS011;3004;48.080;11.600;2023-08-30T15:22:11;86.77;;;6.07;;
5955;SDS011;3004;48.080;11.600;2023-08-30T15:24:38;85.87;;;6.00;;
5955;SDS011;3004;48.080;11.600;2023-08-30T15:27:05;86.17;;;6.20;;
5955;SDS011;3004;48.080;11.600;2023-08-30T15:29:35;85.67;;;6.07;;
5955;SDS011;3004;48.080;11.600;2023-08-30T15:32:09;86.07;;;6.17;;
5955;SDS011;3004;48.080;11.600;2023-08-30T15:44:22;87.37;;;6.37;;
5955;SDS011;3004;48.080;11.600;2023-08-30T15:50:13;87.60;;;6.77;;
5955;SDS011;3004;48.080;11.600;2023-08-30T15:52:40;88.57;;;6.80;;
5955;SDS011;3004;48.080;11.600;2023-08-30T15:55:07;88.27;;;6.67;;
5955;SDS011;3004;48.080;11.600;2023-08-30T15:57:35;87.67;;;6.60;;
5955;SDS011;3004;48.080;11.600;2023-08-30T16:00:03;86.17;;;6.30;;
5955;SDS011;3004;48.080;11.600;2023-08-30T16:02:33;85.67;;;6.10;;
5955;SDS011;3004;48.080;11.600;2023-08-30T16:05:02;86.10;;;6.20;;
5955;SDS011;3004;48.080;11.600;2023-08-30T16:07:29;85.77;;;6.10;;
5955;SDS011;3004;48.080;11.600;2023-08-30T16:09:56;84.97;;;6.03;;
5955;SDS011;3004;48.080;11.600;2023-08-30T16:12:23;85.37;;;5.90;;
5955;SDS011;3004;48.080;11.600;2023-08-30T16:14:52;85.07;;;6.10;;
5955;SDS011;3004;48.080;11.600;2023-08-30T16:17:19;85.70;;;6.30;;
5955;SDS011;3004;48.080;11.600;2023-08-30T16:19:54;85.73;;;6.20;;
5955;SDS011;3004;48.080;11.600;2023-08-30T16:22:22;85.67;;;6.00;;
5955;SDS011;3004;48.080;11.600;2023-08-30T16:24:51;86.17;;;6.83;;
5955;SDS011;3004;48.080;11.600;2023-08-30T16:27:20;85.47;;;6.30;;
5955;SDS011;3004;48.080;11.600;2023-08-30T16:29:48;86.30;;;6.30;;
5955;SDS011;3004;48.080;11.600;2023-08-30T16:32:20;85.97;;;6.17;;
5955;SDS011;3004;48.080;11.600;2023-08-30T16:34:47;87.30;;;7.23;;
5955;SDS011;3004;48.080;11.600;2023-08-30T16:37:14;86.17;;;6.20;;
5955;SDS011;3004;48.080;11.600;2023-08-30T16:39:42;86.37;;;6.23;;
5955;SDS011;3004;48.080;11.600;2023-08-30T16:42:09;86.50;;;6.20;;
5955;SDS011;3004;48.080;11.600;2023-08-30T16:44:36;86.63;;;6.30;;
5955;SDS011;3004;48.080;11.600;2023-08-30T16:47:03;86.50;;;6.50;;
5955;SDS011;3004;48.080;11.600;2023-08-30T16:49:32;86.20;;;6.20;;
5955;SDS011;3004;48.080;11.600;2023-08-30T16:51:59;86.47;;;6.30;;
5955;SDS011;3004;48.080;11.600;2023-08-30T16:54:26;86.37;;;6.23;;
5955;SDS011;3004;48.080;11.600;2023-08-30T16:56:53;86.43;;;6.30;;
5955;SDS011;3004;48.080;11.600;2023-08-30T17:13:02;87.30;;;6.50;;
5955;SDS011;3004;48.080;11.600;2023-08-30T17:15:33;87.00;;;6.37;;
5955;SDS011;3004;48.080;11.600;2023-08-30T17:18:02;87.70;;;6.70;;
5955;SDS011;3004;48.080;11.600;2023-08-30T17:20:33;87.50;;;6.50;;
5955;SDS011;3004;48.080;11.600;2023-08-30T17:23:24;87.23;;;6.50;;
5955;SDS011;3004;48.080;11.600;2023-08-30T17:25:54;87.13;;;6.37;;
5955;SDS011;3004;48.080;11.600;2023-08-30T17:28:51;86.90;;;6.53;;
5955;SDS011;3004;48.080;11.600;2023-08-30T17:31:21;86.67;;;6.33;;
5955;SDS011;3004;48.080;11.600;2023-08-30T17:33:50;87.17;;;6.50;;
5955;SDS011;3004;48.080;11.600;2023-08-30T19:24:54;87.87;;;6.80;;
5955;SDS011;3004;48.080;11.600;2023-08-30T19:27:21;87.77;;;6.70;;
5955;SDS011;3004;48.080;11.600;2023-08-30T19:29:51;87.97;;;6.77;;
5955;SDS011;3004;48.080;11.600;2023-08-30T19:32:18;87.90;;;6.77;;
5955;SDS011;3004;48.080;11.600;2023-08-30T19:34:45;87.73;;;6.67;;
5955;SDS011;3004;48.080;11.600;2023-08-30T19:37:20;87.60;;;6.80;;
5955;SDS011;3004;48.080;11.600;2023-08-30T19:40:06;88.10;;;6.73;;
5955;SDS011;3004;48.080;11.600;2023-08-30T19:42:39;87.77;;;6.73;;
5955;SDS011;3004;48.080;11.600;2023-08-30T19:45:12;88.10;;;6.87;;
5955;SDS011;3004;48.080;11.600;2023-08-30T19:47:41;87.77;;;6.67;;
5955;SDS011;3004;48.080;11.600;2023-08-30T19:50:08;87.73;;;6.67;;
5955;SDS011;3004;48.080;11.600;2023-08-30T19:52:36;87.30;;;6.63;;
5955;SDS011;3004;48.080;11.600;2023-08-30T19:55:07;87.57;;;6.73;;
5955;SDS011;3004;48.080;11.600;2023-08-30T20:10:45;88.07;;;6.80;;
5955;SDS011;3004;48.080;11.600;2023-08-30T20:16:39;88.33;;;6.87;;
5955;SDS011;3004;48.080;11.600;2023-08-30T20:19:15;87.97;;;6.90;;
5955;SDS011;3004;48.080;11.600;2023-08-30T21:14:10;88.50;;;7.10;;
5955;SDS011;3004;48.080;11.600;2023-08-30T21:16:38;88.33;;;6.93;;
5955;SDS011;3004;48.080;11.600;2023-08-30T21:19:05;88.27;;;6.97;;
5955;SDS011;3004;48.080;11.600;2023-08-30T21:21:32;88.67;;;7.13;;
5955;SDS011;3004;48.080;11.600;2023-08-30T21:23:59;88.47;;;6.97;;
5955;SDS011;3004;48.080;11.600;2023-08-30T21:26:26;88.17;;;7.03;;
5955;SDS011;3004;48.080;11.600;2023-08-30T21:28:53;88.30;;;7.07;;
5955;SDS011;3004;48.080;11.600;2023-08-30T21:31:22;88.47;;;6.97;;
5955;SDS011;3004;48.080;11.600;2023-08-30T21:33:49;88.57;;;7.10;;
5955;SDS011;3004;48.080;11.600;2023-08-30T21:36:22;88.47;;;7.03;;
5955;SDS011;3004;48.080;11.600;2023-08-30T21:38:55;88.43;;;6.97;;
5955;SDS011;3004;48.080;11.600;2023-08-30T21:41:22;88.07;;;6.97;;
5955;SDS011;3004;48.080;11.600;2023-08-30T21:43:52;88.20;;;7.00;;
5955;SDS011;3004;48.080;11.600;2023-08-30T21:46:26;88.37;;;7.00;;
5955;SDS011;3004;48.080;11.600;2023-08-30T21:48:53;88.07;;;6.97;;
5955;SDS011;3004;48.080;11.600;2023-08-30T21:51:20;88.43;;;6.93;;
5955;SDS011;3004;48.080;11.600;2023-08-30T21:53:49;88.60;;;7.70;;
5955;SDS011;3004;48.080;11.600;2023-08-30T21:56:20;87.87;;;6.87;;
5955;SDS011;3004;48.080;11.600;2023-08-30T21:58:47;87.87;;;6.90;;
5955;SDS011;3004;48.080;11.600;2023-08-30T22:01:19;87.67;;;6.97;;
5955;SDS011;3004;48.080;11.600;2023-08-30T22:03:47;88.03;;;6.90;;
5955;SDS011;3004;48.080;11.600;2023-08-30T22:06:15;87.93;;;6.87;;
5955;SDS011;3004;48.080;11.600;2023-08-30T22:08:44;87.70;;;6.90;;
5955;SDS011;3004;48.080;11.600;2023-08-30T22:11:11;88.07;;;6.93;;
5955;SDS011;3004;48.080;11.600;2023-08-30T22:17:00;90.30;;;8.90;;
5955;SDS011;3004;48.080;11.600;2023-08-30T22:19:30;87.97;;;6.93;;
5955;SDS011;3004;48.080;11.600;2023-08-30T22:21:57;87.97;;;7.10;;
5955;SDS011;3004;48.080;11.600;2023-08-30T22:24:27;87.93;;;7.00;;
5955;SDS011;3004;48.080;11.600;2023-08-30T22:26:57;88.07;;;6.90;;
5955;SDS011;3004;48.080;11.600;2023-08-30T22:29:27;87.97;;;7.03;;
5955;SDS011;3004;48.080;11.600;2023-08-30T22:31:55;87.97;;;7.07;;
5955;SDS011;3004;48.080;11.600;2023-08-30T22:34:22;87.97;;;6.87;;
5955;SDS011;3004;48.080;11.600;2023-08-30T22:36:52;87.77;;;7.00;;
5955;SDS011;3004;48.080;11.600;2023-08-30T22:39:19;88.00;;;6.90;;
5955;SDS011;3004;48.080;11.600;2023-08-30T22:41:50;87.80;;;6.83;;
5955;SDS011;3004;48.080;11.600;2023-08-30T22:44:18;87.97;;;6.87;;
5955;SDS011;3004;48.080;11.600;2023-08-30T22:46:45;87.80;;;6.80;;
5955;SDS011;3004;48.080;11.600;2023-08-30T22:49:12;87.93;;;6.90;;
5955;SDS011;3004;48.080;11.600;2023-08-30T22:51:42;87.43;;;6.80;;
5955;SDS011;3004;48.080;11.600;2023-08-30T22:57:32;87.27;;;6.70;;
5955;SDS011;3004;48.080;11.600;2023-08-30T23:00:02;87.37;;;6.67;;
5955;SDS011;3004;48.080;11.600;2023-08-30T23:02:33;87.13;;;6.77;;
5955;SDS011;3004;48.080;11.600;2023-08-30T23:05:01;86.70;;;6.60;;
5955;SDS011;3004;48.080;11.600;2023-08-30T23:07:28;86.77;;;6.57;;
5955;SDS011;3004;48.080;11.600;2023-08-30T23:09:55;86.83;;;6.43;;
5955;SDS011;3004;48.080;11.600;2023-08-30T23:12:32;86.97;;;6.53;;
5955;SDS011;3004;48.080;11.600;2023-08-30T23:15:13;86.57;;;6.53;;
5955;SDS011;3004;48.080;11.600;2023-08-30T23:17:41;86.57;;;6.43;;
5955;SDS011;3004;48.080;11.600;2023-08-30T23:20:11;86.37;;;6.47;;
5955;SDS011;3004;48.080;11.600;2023-08-30T23:22:41;86.63;;;6.43;;
5955;SDS011;3004;48.080;11.600;2023-08-30T23:25:11;86.20;;;6.50;;
5955;SDS011;3004;48.080;11.600;2023-08-30T23:27:44;86.70;;;6.50;;
5955;SDS011;3004;48.080;11.600;2023-08-30T23:30:16;86.43;;;6.53;;
5955;SDS011;3004;48.080;11.600;2023-08-30T23:32:44;86.53;;;6.47;;
5955;SDS011;3004;48.080;11.600;2023-08-30T23:35:12;86.33;;;6.50;;
5955;SDS011;3004;48.080;11.600;2023-08-30T23:37:46;86.57;;;6.40;;
5955;SDS011;3004;48.080;11.600;2023-08-30T23:40:20;86.20;;;6.57;;
5955;SDS011;3004;48.080;11.600;2023-08-30T23:42:51;86.67;;;6.50;;
5955;SDS011;3004;48.080;11.600;2023-08-30T23:45:21;86.67;;;6.60;;
5955;SDS011;3004;48.080;11.600;2023-08-30T23:47:50;86.57;;;6.50;;
5955;SDS011;3004;48.080;11.600;2023-08-30T23:50:17;86.67;;;6.50;;
5955;SDS011;3004;48.080;11.600;2023-08-30T23:52:46;87.20;;;6.60;;
5955;SDS011;3004;48.080;11.600;2023-08-30T23:55:18;87.30;;;7.00;;
5955;SDS011;3004;48.080;11.600;2023-08-30T23:57:58;86.97;;;6.57;;
